Time;durP1;ratioP1;P1;durP2;ratioP2;P2;SDS_P1;SDS_P2;PMS_P1;PMS_P2;Temp;Humidity;BMP_temperature;BMP_pressure;BME280_temperature;BME280_humidity;BME280_pressure;Samples;Min_cycle;Max_cycle;Signal;HPM_P1;HPM_P2
2022/11/30 00:02:29;;;;;;;7.40;4.70;;;12.30;91.50;;;;;;5004224;28;20034;-71
2022/11/30 00:05:33;;;;;;;6.18;4.40;;;;;;;;;;4993599;28;20053;-71
2022/11/30 00:08:37;;;;;;;6.22;4.47;;;;;;;;;;4993458;28;20035;-71
2022/11/30 00:11:41;;;;;;;7.97;4.55;;;;;;;;;;4993752;28;20042;-71
2022/11/30 00:14:46;;;;;;;5.05;3.97;;;;;;;;;;4993733;28;20038;-69
2022/11/30 00:17:55;;;;;;;7.07;4.07;;;12.30;91.40;;;;;;5003760;28;20387;-70
2022/11/30 00:21:09;;;;;;;6.45;4.30;;;12.30;91.30;;;;;;4993348;28;20049;-71
2022/11/30 00:24:13;;;;;;;10.00;4.15;;;;;;;;;;4993563;28;20053;-71
2022/11/30 00:27:17;;;;;;;6.82;4.13;;;;;;;;;;4993013;28;20053;-71
2022/11/30 00:30:22;;;;;;;7.55;4.07;;;;;;;;;;4992530;28;20034;-71
2022/11/30 00:33:26;;;;;;;4.95;3.80;;;12.20;91.20;;;;;;4993126;28;20494;-71
2022/11/30 00:36:30;;;;;;;5.93;3.70;;;;;;;;;;4993376;28;20041;-71
2022/11/30 00:39:34;;;;;;;7.68;3.97;;;;;;;;;;4993072;28;20171;-71
2022/11/30 00:42:39;;;;;;;4.50;3.50;;;;;;;;;;4992275;28;20042;-71
2022/11/30 00:45:43;;;;;;;6.68;3.53;;;;;;;;;;4993054;28;20046;-70
2022/11/30 00:48:47;;;;;;;5.82;3.67;;;;;;;;;;4993113;28;20399;-70
2022/11/30 00:51:52;;;;;;;4.10;3.30;;;;;;;;;;4992923;28;20042;-70
2022/11/30 00:54:56;;;;;;;7.05;3.72;;;;;;;;;;4992985;28;20368;-70
2022/11/30 00:58:00;;;;;;;5.60;3.45;;;;;;;;;;4992637;28;20046;-70
2022/11/30 01:01:05;;;;;;;4.78;3.33;;;;;;;;;;4992750;28;20034;-71
2022/11/30 01:04:09;;;;;;;4.40;3.33;;;;;;;;;;4992328;28;20125;-71
2022/11/30 01:07:13;;;;;;;3.97;3.30;;;;;;;;;;4992214;28;20054;-70
2022/11/30 01:10:18;;;;;;;3.53;3.22;;;;;;;;;;5003062;28;20046;-71
2022/11/30 01:13:22;;;;;;;3.75;2.85;;;;;;;;;;4992394;28;20042;-71
2022/11/30 01:16:29;;;;;;;4.38;3.38;;;11.30;91.20;;;;;;4992493;28;20038;-71
2022/11/30 01:19:34;;;;;;;3.95;3.05;;;;;;;;;;4992198;28;20410;-70
2022/11/30 01:22:38;;;;;;;5.03;3.47;;;;;;;;;;4992272;28;20039;-70
2022/11/30 01:25:52;;;;;;;6.22;3.10;;;12.70;91.60;;;;;;4992448;28;20046;-71
2022/11/30 01:28:57;;;;;;;2.90;2.58;;;;;;;;;;4992078;28;20497;-71
2022/11/30 01:32:01;;;;;;;3.20;2.58;;;;;;;;;;4991745;28;20047;-70
2022/11/30 01:35:07;;;;;;;3.60;1.95;;;;;;;;;;4992068;28;20042;-70
2022/11/30 01:38:11;;;;;;;3.28;2.33;;;;;;;;;;4991914;28;20035;-70
2022/11/30 01:41:25;;;;;;;3.35;2.28;;;12.40;91.10;;;;;;4991734;28;20375;-70
2022/11/30 01:44:29;;;;;;;2.42;2.10;;;;;;;;;;4990819;28;20045;-70
2022/11/30 01:48:04;;;;;;;4.35;2.40;;;10.80;90.80;;;;;;4991642;28;20050;-71
2022/11/30 01:51:08;;;;;;;2.67;2.10;;;;;;;;;;5002311;28;20037;-71
2022/11/30 01:54:15;;;;;;;2.75;1.85;;;12.40;91.10;;;;;;4991439;28;20050;-70
2022/11/30 01:57:36;;;;;;;2.42;1.85;;;12.30;91.10;;;;;;4991745;28;20045;-70
2022/11/30 02:00:44;;;;;;;4.38;2.33;;;12.10;90.90;;;;;;4991082;28;20045;-71
2022/11/30 02:04:00;;;;;;;2.50;1.60;;;12.50;90.80;;;;;;4991455;28;20065;-70
2022/11/30 02:07:07;;;;;;;2.83;1.92;;;12.30;90.80;;;;;;4991517;28;20061;-70
2022/11/30 02:10:17;;;;;;;3.28;2.00;;;12.70;90.90;;;;;;4991851;28;20506;-70
2022/11/30 02:13:32;;;;;;;;;;;12.70;91.00;;;;;;4991825;28;20053;-71
2022/11/30 02:17:15;;;;;;;5.05;2.38;;;12.50;91.10;;;;;;4991549;28;20306;-70
2022/11/30 02:20:46;;;;;;;2.63;2.28;;;12.30;91.10;;;;;;4995743;28;20513;-71
2022/11/30 02:24:00;;;;;;;3.08;2.30;;;12.40;90.90;;;;;;4997912;28;20057;-70
2022/11/30 02:27:10;;;;;;;4.55;2.70;;;12.40;90.90;;;;;;4997892;28;20378;-70
2022/11/30 02:30:20;;;;;;;3.55;2.80;;;;;;;;;;4997980;28;20398;-70
2022/11/30 02:33:28;;;;;;;4.43;2.83;;;12.40;91.10;;;;;;4997715;28;20050;-71
2022/11/30 02:36:33;;;;;;;3.88;2.75;;;;;;;;;;4997667;28;20390;-70
2022/11/30 02:39:37;;;;;;;3.95;3.00;;;;;;;;;;4997662;28;20042;-71
2022/11/30 02:42:41;;;;;;;4.07;3.08;;;;;;;;;;4997882;28;20035;-70
2022/11/30 02:45:46;;;;;;;5.10;3.45;;;;;;;;;;4997638;28;20042;-70
2022/11/30 02:49:16;;;;;;;4.00;3.60;;;13.10;91.10;;;;;;4997517;28;20039;-70
2022/11/30 02:52:25;;;;;;;7.70;3.45;;;11.40;90.70;;;;;;4997842;28;20045;-70
2022/11/30 02:55:30;;;;;;;6.45;3.38;;;;;;;;;;4997456;28;20073;-70
2022/11/30 02:58:35;;;;;;;5.28;3.45;;;;;;;;;;4997940;28;20038;-70
2022/11/30 03:01:39;;;;;;;5.10;3.78;;;;;;;;;;4997663;28;20046;-70
2022/11/30 03:04:44;;;;;;;6.95;3.72;;;;;;;;;;4997774;28;20042;-70
2022/11/30 03:07:48;;;;;;;4.80;3.58;;;;;;;;;;4998051;28;20387;-69
2022/11/30 03:10:52;;;;;;;5.55;3.60;;;;;;;;;;4998000;28;20038;-70
2022/11/30 03:13:56;;;;;;;7.75;3.95;;;;;;;;;;4997514;28;20035;-70
2022/11/30 03:17:01;;;;;;;6.28;3.63;;;;;;;;;;4998298;28;20034;-70
2022/11/30 03:20:06;;;;;;;9.30;4.00;;;12.20;91.20;;;;;;4997665;28;20046;-71
2022/11/30 03:23:10;;;;;;;5.68;3.40;;;12.20;91.20;;;;;;4997623;28;20045;-70
2022/11/30 03:26:14;;;;;;;4.10;3.20;;;;;;;;;;4997497;28;20058;-70
2022/11/30 03:29:18;;;;;;;4.45;3.60;;;;;;;;;;4997318;28;20034;-69
2022/11/30 03:32:22;;;;;;;4.78;3.60;;;;;;;;;;4993338;28;20062;-70
2022/11/30 03:35:27;;;;;;;3.42;3.10;;;;;;;;;;4994325;28;20034;-70
2022/11/30 03:38:31;;;;;;;5.00;3.40;;;;;;;;;;4994174;28;20030;-70
2022/11/30 03:41:35;;;;;;;7.43;3.60;;;;;;;;;;5004898;28;20046;-70
2022/11/30 03:44:40;;;;;;;6.03;3.30;;;;;;;;;;4994546;28;20047;-70
2022/11/30 03:47:44;;;;;;;5.03;3.50;;;;;;;;;;4993887;28;20050;-70
2022/11/30 03:50:49;;;;;;;4.40;3.30;;;;;;;;;;4993989;28;20035;-70
2022/11/30 03:53:53;;;;;;;4.72;3.45;;;;;;;;;;4993929;28;20042;-71
2022/11/30 03:56:57;;;;;;;4.55;3.22;;;11.90;91.90;;;;;;4993828;28;20039;-70
2022/11/30 04:00:01;;;;;;;4.45;3.38;;;;;;;;;;4994494;28;20048;-71
2022/11/30 04:03:16;;;;;;;6.80;3.58;;;;;;;;;;4993509;28;20274;-70
2022/11/30 04:06:20;;;;;;;5.35;3.17;;;12.30;92.10;;;;;;4993582;28;20038;-70
2022/11/30 04:09:24;;;;;;;5.18;3.60;;;;;;;;;;4993328;28;20045;-70
2022/11/30 04:12:29;;;;;;;4.60;3.15;;;;;;;;;;4993587;28;20042;-70
2022/11/30 04:15:33;;;;;;;5.50;3.60;;;;;;;;;;4993503;28;20034;-70
2022/11/30 04:18:37;;;;;;;6.30;3.25;;;12.20;92.20;;;;;;4993326;28;20394;-70
2022/11/30 04:21:42;;;;;;;4.97;3.28;;;;;;;;;;4993347;28;20063;-70
2022/11/30 04:24:46;;;;;;;4.63;3.67;;;;;;;;;;4993766;28;20174;-71
2022/11/30 04:27:50;;;;;;;4.82;3.38;;;;;;;;;;4993057;28;20046;-70
2022/11/30 04:30:55;;;;;;;6.68;3.58;;;;;;;;;;4993124;28;20042;-70
2022/11/30 04:33:59;;;;;;;8.35;3.42;;;;;;;;;;4993558;28;20387;-71
2022/11/30 04:37:03;;;;;;;4.70;3.85;;;;;;;;;;4992902;28;20038;-70
2022/11/30 04:40:08;;;;;;;6.55;3.17;;;14.00;92.80;;;;;;4993183;28;20042;-71
2022/11/30 04:43:12;;;;;;;5.35;3.72;;;;;;;;;;4992714;28;20042;-71
2022/11/30 04:46:17;;;;;;;4.78;3.70;;;;;;;;;;4992973;28;20046;-71
2022/11/30 04:49:21;;;;;;;4.97;3.67;;;;;;;;;;4993027;28;20038;-71
2022/11/30 04:52:25;;;;;;;5.38;3.72;;;;;;;;;;4993098;28;20051;-71
2022/11/30 04:55:29;;;;;;;5.07;3.22;;;12.50;92.00;;;;;;4992926;28;20038;-70
2022/11/30 04:58:34;;;;;;;8.18;3.83;;;12.20;91.90;;;;;;4992578;28;20049;-71
2022/11/30 05:01:38;;;;;;;4.75;3.53;;;12.40;91.90;;;;;;4992694;28;20051;-71
2022/11/30 05:04:42;;;;;;;4.75;3.60;;;13.20;92.00;;;;;;4992516;28;20049;-71
2022/11/30 05:07:53;;;;;;;5.40;3.58;;;12.30;91.60;;;;;;4992472;28;20398;-70
2022/11/30 05:10:58;;;;;;;4.28;3.50;;;;;;;;;;4992590;28;20084;-70
2022/11/30 05:14:02;;;;;;;5.50;3.90;;;;;;;;;;4992256;28;20030;-70
2022/11/30 05:17:06;;;;;;;9.15;3.35;;;;;;;;;;4992709;28;20042;-71
2022/11/30 05:20:11;;;;;;;4.80;3.13;;;12.40;91.80;;;;;;4992151;28;20034;-70
2022/11/30 05:23:16;;;;;;;4.97;3.10;;;12.50;91.80;;;;;;4992431;28;20079;-70
2022/11/30 05:26:19;;;;;;;5.78;3.08;;;;;;;;;;4992817;28;20065;-70
2022/11/30 05:29:24;;;;;;;4.95;3.70;;;;;;;;;;4992010;28;20371;-70
2022/11/30 05:32:28;;;;;;;4.95;3.80;;;;;;;;;;4993691;28;20050;-71
2022/11/30 05:35:33;;;;;;;4.35;3.35;;;;;;;;;;4992040;28;20193;-70
2022/11/30 05:38:37;;;;;;;4.93;3.30;;;;;;;;;;4991815;28;20046;-70
2022/11/30 05:41:41;;;;;;;5.07;3.03;;;;;;;;;;4992231;28;20042;-71
2022/11/30 05:44:46;;;;;;;4.30;3.25;;;12.50;92.20;;;;;;4991970;28;20486;-71
2022/11/30 05:47:51;;;;;;;5.40;3.17;;;;;;;;;;4991658;28;20065;-70
2022/11/30 05:50:55;;;;;;;3.95;3.00;;;;;;;;;;4992179;28;20035;-70
2022/11/30 05:54:00;;;;;;;4.88;3.28;;;;;;;;;;4990961;28;20392;-70
2022/11/30 05:57:04;;;;;;;4.93;3.30;;;;;;;;;;4991864;28;20039;-71
2022/11/30 06:00:08;;;;;;;6.30;3.47;;;;;;;;;;4991682;28;20050;-71
2022/11/30 06:03:18;;;;;;;4.00;3.00;;;;;;;;;;4991681;28;20055;-71
2022/11/30 06:06:23;;;;;;;4.70;3.10;;;;;;;;;;4991520;28;20042;-70
2022/11/30 06:09:27;;;;;;;3.80;3.28;;;;;;;;;;4991381;28;20427;-71
2022/11/30 06:12:31;;;;;;;7.47;3.92;;;;;;;;;;4990279;28;20062;-71
2022/11/30 06:15:36;;;;;;;6.75;3.63;;;12.50;91.80;;;;;;4991529;28;20042;-71
2022/11/30 06:18:41;;;;;;;5.13;3.55;;;;;;;;;;4991549;28;20418;-71
2022/11/30 06:21:45;;;;;;;6.25;3.75;;;12.20;91.70;;;;;;4991338;28;20171;-71
2022/11/30 06:24:49;;;;;;;6.15;4.00;;;;;;;;;;4991567;28;20049;-71
2022/11/30 06:27:54;;;;;;;4.50;3.67;;;;;;;;;;4991162;28;20050;-71
2022/11/30 06:31:03;;;;;;;4.75;3.63;;;12.60;91.30;;;;;;4990958;28;20038;-71
2022/11/30 06:34:07;;;;;;;4.80;3.42;;;;;;;;;;4991561;28;20065;-72
2022/11/30 06:37:11;;;;;;;5.05;3.55;;;;;;;;;;4990749;28;20375;-72
2022/11/30 06:40:16;;;;;;;7.97;3.40;;;;;;;;;;4991521;28;20482;-72
2022/11/30 06:43:20;;;;;;;4.32;3.25;;;12.70;91.60;;;;;;4991509;28;20046;-72
2022/11/30 06:49:47;;;;;;;6.45;3.72;;;;;;;;;;4991205;28;20041;-72
2022/11/30 06:52:51;;;;;;;7.60;4.20;;;12.80;91.60;;;;;;4990993;28;20486;-73
2022/11/30 06:55:55;;;;;;;4.78;3.50;;;12.60;91.60;;;;;;5001624;28;20049;-71
2022/11/30 06:58:59;;;;;;;5.05;3.50;;;12.80;91.50;;;;;;4991620;28;20497;-73
2022/11/30 07:02:04;;;;;;;8.10;4.63;;;;;;;;;;4990999;28;20041;-75
2022/11/30 07:05:08;;;;;;;5.65;4.28;;;12.70;91.40;;;;;;4991057;28;20038;-72
2022/11/30 07:08:14;;;;;;;6.95;4.30;;;13.00;91.30;;;;;;4994612;28;20061;-73
2022/11/30 07:11:18;;;;;;;7.88;4.22;;;12.90;91.00;;;;;;4994547;28;20529;-73
2022/11/30 07:14:22;;;;;;;6.93;4.38;;;13.00;90.80;;;;;;4994707;28;20046;-73
2022/11/30 07:17:26;;;;;;;11.23;5.10;;;12.80;90.90;;;;;;4994477;28;20041;-74
2022/11/30 07:20:30;;;;;;;9.45;5.15;;;12.00;90.40;;;;;;4994836;28;20049;-74
2022/11/30 07:26:58;;;;;;;9.15;5.00;;;13.20;90.60;;;;;;4994377;28;20062;-73
2022/11/30 07:30:03;;;;;;;11.07;5.00;;;13.20;90.70;;;;;;4994259;28;20042;-71
2022/11/30 07:33:06;;;;;;;6.35;4.78;;;13.20;90.70;;;;;;4993647;28;20057;-72
2022/11/30 07:36:10;;;;;;;8.00;4.45;;;13.30;90.20;;;;;;5004311;28;20045;-72
2022/11/30 07:39:15;;;;;;;9.18;5.18;;;13.30;89.70;;;;;;4993988;28;20045;-72
2022/11/30 07:42:18;;;;;;;7.85;4.80;;;13.50;90.10;;;;;;4994253;28;20300;-73
2022/11/30 07:45:22;;;;;;;8.88;4.57;;;13.40;90.00;;;;;;4993339;28;20501;-72
2022/11/30 07:48:26;;;;;;;10.85;6.55;;;13.50;89.80;;;;;;4993809;28;20053;-73
2022/11/30 07:51:31;;;;;;;10.85;6.30;;;13.60;89.90;;;;;;4993881;28;20493;-76
2022/11/30 07:54:35;;;;;;;10.77;6.25;;;13.70;89.80;;;;;;4994280;28;20469;-72
2022/11/30 07:57:39;;;;;;;7.90;5.40;;;13.80;89.60;;;;;;5004110;28;20041;-71
2022/11/30 08:00:43;;;;;;;8.38;5.53;;;14.00;89.70;;;;;;4993614;28;20053;-72
2022/11/30 08:03:49;;;;;;;9.52;5.25;;;14.00;89.50;;;;;;4993868;28;20057;-73
2022/11/30 08:06:54;;;;;;;7.25;4.50;;;14.10;89.80;;;;;;5003792;28;20061;-73
2022/11/30 08:09:58;;;;;;;12.82;5.57;;;14.10;90.00;;;;;;4993773;28;20053;-73
2022/11/30 08:13:02;;;;;;;13.63;4.90;;;14.10;90.00;;;;;;4993956;28;20066;-72
2022/11/30 08:16:11;;;;;;;9.65;5.72;;;14.10;89.30;;;;;;4993481;28;20049;-72
2022/11/30 08:19:15;;;;;;;6.65;4.47;;;14.10;88.20;;;;;;4992854;28;20049;-70
2022/11/30 08:22:19;;;;;;;8.43;4.22;;;14.10;87.00;;;;;;4993170;28;20406;-73
2022/11/30 08:25:23;;;;;;;5.40;4.00;;;14.00;86.50;;;;;;4993408;28;20493;-72
2022/11/30 08:28:29;;;;;;;10.57;4.22;;;14.00;86.70;;;;;;4992774;28;20053;-70
2022/11/30 08:31:35;;;;;;;11.63;5.30;;;14.00;87.40;;;;;;4992941;28;20053;-73
2022/11/30 08:34:39;;;;;;;9.30;5.85;;;14.00;87.90;;;;;;4993427;28;20053;-70
2022/11/30 08:37:42;;;;;;;7.47;4.65;;;13.90;88.20;;;;;;4993025;28;20041;-69
2022/11/30 08:40:46;;;;;;;8.80;4.82;;;13.90;87.10;;;;;;4993119;28;20069;-70
2022/11/30 08:43:51;;;;;;;6.20;4.30;;;13.00;87.10;;;;;;4993016;28;20497;-72
2022/11/30 08:46:55;;;;;;;8.80;5.03;;;14.00;87.90;;;;;;4993108;28;20053;-72
2022/11/30 08:50:00;;;;;;;11.57;5.15;;;14.00;88.10;;;;;;4993453;28;20065;-71
2022/11/30 08:53:04;;;;;;;8.63;5.22;;;13.90;88.50;;;;;;4993136;28;20446;-71
2022/11/30 08:56:12;;;;;;;11.57;4.82;;;14.00;86.30;;;;;;4993870;28;20041;-70
2022/11/30 08:59:16;;;;;;;8.52;4.88;;;14.10;87.30;;;;;;4993013;28;20049;-75
2022/11/30 09:02:20;;;;;;;8.07;4.25;;;14.00;87.50;;;;;;4993034;28;20053;-72
2022/11/30 09:05:24;;;;;;;7.30;4.53;;;13.90;88.20;;;;;;4992652;28;20061;-72
2022/11/30 09:08:28;;;;;;;10.00;5.30;;;13.90;88.80;;;;;;4992352;28;20060;-72
2022/11/30 09:11:32;;;;;;;9.25;4.85;;;14.00;89.00;;;;;;4991917;28;20049;-74
2022/11/30 09:14:36;;;;;;;8.90;4.18;;;13.90;89.30;;;;;;4992313;28;20040;-73
2022/11/30 09:17:40;;;;;;;6.60;4.25;;;13.90;89.40;;;;;;4992514;28;20041;-72
2022/11/30 09:20:44;;;;;;;12.18;4.38;;;13.90;89.50;;;;;;4992389;28;20049;-74
2022/11/30 09:23:49;;;;;;;8.23;4.63;;;13.90;90.00;;;;;;4992231;28;20045;-73
2022/11/30 09:26:56;;;;;;;10.23;4.80;;;13.80;89.90;;;;;;4992086;28;20053;-73
2022/11/30 09:30:01;;;;;;;7.32;4.35;;;14.20;90.00;;;;;;4992114;28;20041;-77
2022/11/30 09:33:05;;;;;;;7.70;4.50;;;13.80;89.90;;;;;;4991863;28;20057;-74
2022/11/30 09:36:12;;;;;;;11.05;4.78;;;13.80;89.50;;;;;;4992166;28;20049;-73
2022/11/30 09:39:16;;;;;;;9.18;4.78;;;13.70;90.00;;;;;;5002541;28;20045;-72
2022/11/30 09:42:40;;;;;;;6.80;4.45;;;13.70;89.40;;;;;;4992420;28;20497;-73
2022/11/30 09:45:53;;;;;;;9.07;5.30;;;13.70;89.60;;;;;;4991773;28;20045;-76
2022/11/30 09:49:18;;;;;;;7.78;4.90;;;15.10;90.30;;;;;;4991920;28;20053;-75
2022/11/30 09:52:36;;;;;;;8.02;5.05;;;13.80;90.00;;;;;;4991844;28;20049;-74
2022/11/30 09:55:42;;;;;;;9.80;5.75;;;14.20;90.40;;;;;;4991655;28;20407;-76
2022/11/30 09:58:58;;;;;;;10.23;6.25;;;13.70;90.50;;;;;;4991479;28;20053;-74
2022/11/30 10:02:14;;;;;;;9.38;5.93;;;13.60;90.30;;;;;;4990909;28;20389;-76
2022/11/30 10:05:40;;;;;;;8.45;6.20;;;13.70;90.20;;;;;;4991822;28;20061;-77
2022/11/30 10:08:56;;;;;;;9.35;6.22;;;13.90;90.40;;;;;;4994658;28;20057;-75
2022/11/30 10:12:15;;;;;;;10.45;5.57;;;13.70;90.10;;;;;;4991601;28;20045;-74
2022/11/30 10:15:38;;;;;;;13.25;6.05;;;13.80;90.10;;;;;;4991757;28;20049;-73
2022/11/30 10:19:27;;;;;;;11.13;6.20;;;16.00;90.90;;;;;;4990430;28;20042;-76
2022/11/30 10:22:40;;;;;;;10.45;5.82;;;13.70;90.20;;;;;;5001950;28;20057;-74
2022/11/30 10:25:56;;;;;;;10.75;6.18;;;13.90;90.60;;;;;;4991542;28;20057;-73
2022/11/30 10:29:19;;;;;;;15.48;6.20;;;13.80;90.50;;;;;;4991173;28;20049;-75
2022/11/30 10:32:34;;;;;;;10.35;5.93;;;13.80;90.60;;;;;;4990385;28;20070;-75
2022/11/30 10:35:49;;;;;;;7.97;5.90;;;13.90;89.80;;;;;;4991204;28;20042;-73
2022/11/30 10:38:59;;;;;;;9.23;5.70;;;13.80;89.40;;;;;;4991270;28;20046;-73
2022/11/30 10:42:21;;;;;;;12.55;5.40;;;13.90;88.70;;;;;;5005082;28;20489;-73
2022/11/30 10:45:27;;;;;;;10.35;5.82;;;12.50;88.40;;;;;;4995284;28;20529;-71
2022/11/30 10:48:42;;;;;;;9.43;5.28;;;10.50;86.90;;;;;;4995160;28;20049;-71
2022/11/30 10:51:51;;;;;;;7.72;5.50;;;13.30;88.00;;;;;;4995231;28;20053;-76
2022/11/30 10:54:56;;;;;;;8.30;5.45;;;13.90;87.80;;;;;;4994122;28;20049;-73
2022/11/30 10:58:21;;;;;;;7.00;4.82;;;14.00;87.00;;;;;;4995108;28;20050;-73
2022/11/30 11:01:30;;;;;;;9.50;5.93;;;13.90;87.70;;;;;;4994709;28;20045;-75
2022/11/30 11:04:34;;;;;;;10.23;5.40;;;14.00;88.20;;;;;;4994991;28;20046;-72
2022/11/30 11:07:47;;;;;;;9.73;6.10;;;13.90;88.40;;;;;;4994810;28;20053;-73
2022/11/30 11:10:52;;;;;;;8.88;5.38;;;14.00;88.90;;;;;;4994598;28;20152;-73
2022/11/30 11:14:17;;;;;;;14.07;5.68;;;14.00;88.10;;;;;;4993807;28;20045;-72
2022/11/30 11:17:25;;;;;;;9.05;5.45;;;14.00;89.10;;;;;;4994532;28;20061;-72
2022/11/30 11:20:34;;;;;;;11.35;6.55;;;13.80;88.50;;;;;;4994714;28;20046;-73
2022/11/30 11:23:41;;;;;;;8.38;5.57;;;16.60;90.20;;;;;;4994604;28;20046;-73
2022/11/30 11:26:50;;;;;;;9.90;5.43;;;13.90;87.60;;;;;;4994382;28;20142;-70
2022/11/30 11:30:37;;;;;;;9.30;6.55;;;13.90;88.50;;;;;;4994342;28;20533;-72
2022/11/30 11:33:53;;;;;;;9.55;6.38;;;14.00;88.50;;;;;;4994467;28;20399;-74
2022/11/30 11:37:29;;;;;;;10.18;6.60;;;14.00;88.20;;;;;;4993404;28;20051;-72
2022/11/30 11:40:34;;;;;;;8.23;5.65;;;12.60;87.50;;;;;;4994338;28;20054;-74
2022/11/30 11:43:55;;;;;;;9.35;5.95;;;13.90;87.60;;;;;;4993656;28;20042;-71
2022/11/30 11:47:03;;;;;;;9.88;6.47;;;14.80;88.80;;;;;;4993974;28;20061;-73
2022/11/30 11:50:27;;;;;;;14.57;6.45;;;13.80;88.10;;;;;;4994182;28;20054;-71
2022/11/30 11:53:34;;;;;;;9.18;6.50;;;13.90;88.10;;;;;;4992756;28;20504;-76
2022/11/30 11:56:38;;;;;;;9.35;6.75;;;13.80;88.10;;;;;;4993860;28;20037;-72
2022/11/30 12:00:04;;;;;;;9.77;6.72;;;13.80;88.10;;;;;;4993570;28;20410;-74
2022/11/30 12:03:42;;;;;;;14.48;7.50;;;13.80;88.10;;;;;;4993217;28;20061;-73
2022/11/30 12:06:48;;;;;;;10.48;6.60;;;13.60;88.30;;;;;;4994014;28;20050;-73
2022/11/30 12:10:14;;;;;;;9.25;6.47;;;13.80;88.10;;;;;;4993185;28;20290;-73
2022/11/30 12:13:40;;;;;;;14.50;8.07;;;13.80;87.40;;;;;;4993510;28;20050;-74
2022/11/30 12:17:11;;;;;;;11.73;7.80;;;15.70;88.90;;;;;;4993448;28;20057;-74
2022/11/30 12:20:22;;;;;;;11.13;7.78;;;13.90;87.20;;;;;;4993561;28;20045;-72
2022/11/30 12:23:39;;;;;;;19.60;7.47;;;13.90;87.10;;;;;;4993530;28;20134;-74
2022/11/30 12:27:02;;;;;;;14.20;8.20;;;13.80;87.70;;;;;;4993535;28;20509;-76
2022/11/30 12:30:38;;;;;;;11.38;7.53;;;13.90;87.80;;;;;;4993774;28;20053;-74
2022/11/30 12:34:03;;;;;;;10.90;7.30;;;14.00;86.60;;;;;;4993221;28;20057;-74
2022/11/30 12:37:26;;;;;;;10.65;7.13;;;14.00;86.20;;;;;;4993485;28;20037;-74
2022/11/30 12:40:39;;;;;;;10.40;7.60;;;13.80;85.80;;;;;;4993336;28;20053;-74
2022/11/30 12:44:10;;;;;;;14.07;7.32;;;14.20;86.60;;;;;;4993192;28;20045;-74
2022/11/30 12:47:56;;;;;;;15.18;8.25;;;14.00;87.00;;;;;;4990234;28;20371;-74
2022/11/30 12:51:22;;;;;;;15.32;8.75;;;13.90;86.40;;;;;;4993106;28;20045;-74
2022/11/30 12:54:36;;;;;;;12.35;8.15;;;13.90;86.80;;;;;;4992985;28;20042;-75
2022/11/30 12:57:58;;;;;;;13.90;8.32;;;13.90;87.20;;;;;;4992789;28;20042;-74
2022/11/30 13:01:12;;;;;;;13.52;7.40;;;14.00;86.70;;;;;;4992807;28;20521;-74
2022/11/30 13:04:19;;;;;;;14.23;9.40;;;14.00;85.50;;;;;;4991695;28;20037;-75
2022/11/30 13:07:41;;;;;;;14.57;9.40;;;14.00;86.00;;;;;;4991557;28;20041;-74
2022/11/30 13:10:53;;;;;;;15.63;9.32;;;14.00;86.40;;;;;;4992546;28;20394;-75
2022/11/30 13:13:59;;;;;;;13.20;8.77;;;13.80;86.60;;;;;;4992665;28;20517;-74
2022/11/30 13:17:13;;;;;;;16.42;10.10;;;13.90;86.40;;;;;;5003223;28;20383;-74
2022/11/30 13:20:26;;;;;;;11.90;8.20;;;13.90;86.40;;;;;;4992429;28;20073;-75
2022/11/30 13:24:00;;;;;;;14.75;9.30;;;13.70;86.70;;;;;;4992276;28;20069;-74
2022/11/30 13:27:10;;;;;;;16.90;9.45;;;13.80;85.90;;;;;;4992678;28;20054;-73
2022/11/30 13:30:18;;;;;;;15.02;8.55;;;13.60;84.80;;;;;;4992377;28;20042;-73
2022/11/30 13:33:47;;;;;;;13.75;9.48;;;13.60;85.90;;;;;;4992300;28;20049;-74
2022/11/30 13:37:04;;;;;;;15.10;10.23;;;13.80;86.30;;;;;;4992478;28;20041;-74
2022/11/30 13:40:21;;;;;;;20.20;10.82;;;13.70;86.10;;;;;;4992721;28;20378;-73
2022/11/30 13:43:28;;;;;;;14.85;9.02;;;13.60;85.60;;;;;;4991791;28;20041;-76
2022/11/30 13:46:33;;;;;;;13.38;8.70;;;12.40;85.10;;;;;;4992246;28;20157;-73
2022/11/30 13:49:37;;;;;;;15.07;7.93;;;;;;;;;;4992059;28;20053;-75
2022/11/30 13:52:57;;;;;;;15.05;8.85;;;13.50;85.00;;;;;;5001783;28;20038;-74
2022/11/30 13:56:02;;;;;;;19.48;10.85;;;13.60;85.80;;;;;;4990741;28;20057;-74
2022/11/30 13:59:34;;;;;;;14.55;8.60;;;13.50;85.80;;;;;;4991289;28;20057;-74
2022/11/30 14:02:41;;;;;;;20.67;9.55;;;11.10;84.60;;;;;;4991721;28;20060;-75
2022/11/30 14:05:53;;;;;;;15.70;7.43;;;13.50;84.80;;;;;;4991823;28;20049;-75
2022/11/30 14:08:57;;;;;;;15.57;8.98;;;13.40;84.50;;;;;;4991234;28;20434;-73
2022/11/30 14:12:29;;;;;;;15.43;8.63;;;13.60;85.40;;;;;;4991640;28;20049;-74
2022/11/30 14:15:41;;;;;;;11.63;8.15;;;13.50;86.10;;;;;;4991002;28;20042;-74
2022/11/30 14:18:45;;;;;;;;;;;13.40;85.90;;;;;;4991758;28;20045;-74
2022/11/30 14:21:49;;;;;;;16.92;8.98;;;13.70;86.80;;;;;;4991674;28;19929;-75
2022/11/30 14:24:54;;;;;;;12.85;8.95;;;13.30;86.40;;;;;;4989961;28;20402;-74
2022/11/30 14:27:59;;;;;;;15.88;9.25;;;14.20;86.90;;;;;;4989347;28;20513;-74
2022/11/30 14:31:07;;;;;;;15.50;9.57;;;14.30;87.40;;;;;;4991181;28;20398;-75
2022/11/30 14:34:20;;;;;;;16.67;8.75;;;13.40;87.30;;;;;;4991410;28;20058;-75
2022/11/30 14:37:36;;;;;;;15.68;9.18;;;13.50;87.00;;;;;;4990263;28;20041;-75
2022/11/30 14:40:48;;;;;;;21.70;9.85;;;;;;;;;;4991777;28;20057;-75
2022/11/30 14:44:13;;;;;;;14.30;9.55;;;13.50;85.50;;;;;;4991753;28;20046;-74
2022/11/30 14:47:20;;;;;;;15.27;9.13;;;13.40;85.10;;;;;;4990890;28;20394;-74
2022/11/30 14:50:25;;;;;;;17.73;9.63;;;13.30;85.00;;;;;;4991427;28;20054;-75
2022/11/30 14:53:32;;;;;;;13.90;8.73;;;13.40;85.10;;;;;;4991179;28;20049;-73
2022/11/30 14:56:45;;;;;;;14.77;9.30;;;13.40;86.10;;;;;;4991346;28;20061;-73
2022/11/30 14:59:54;;;;;;;17.73;10.15;;;13.40;86.00;;;;;;5001712;28;20054;-74
2022/11/30 15:02:58;;;;;;;15.70;8.80;;;15.70;86.70;;;;;;4990911;28;20069;-74
2022/11/30 15:06:04;;;;;;;16.80;9.50;;;13.30;86.20;;;;;;4990942;28;20053;-74
2022/11/30 15:09:24;;;;;;;13.32;9.00;;;13.10;85.80;;;;;;4990373;28;20058;-73
2022/11/30 15:12:28;;;;;;;15.00;9.80;;;13.30;86.20;;;;;;4990336;28;20045;-73
2022/11/30 15:15:32;;;;;;;15.35;8.95;;;13.00;86.10;;;;;;4991234;28;20065;-74
2022/11/30 15:18:38;;;;;;;14.20;7.57;;;13.30;85.20;;;;;;4991105;28;20049;-74
2022/11/30 15:21:45;;;;;;;17.88;11.50;;;13.30;86.10;;;;;;4990797;28;20042;-74
2022/11/30 15:24:49;;;;;;;18.13;10.63;;;13.10;85.80;;;;;;4990757;28;20513;-74
2022/11/30 15:27:54;;;;;;;20.25;11.00;;;13.20;85.80;;;;;;4993480;28;20057;-72
2022/11/30 15:31:00;;;;;;;17.73;9.73;;;;;;;;;;4994672;28;20590;-73
2022/11/30 15:34:06;;;;;;;25.98;11.00;;;13.00;86.10;;;;;;4994798;28;20505;-71
2022/11/30 15:37:10;;;;;;;22.10;10.60;;;13.00;86.20;;;;;;4994319;28;20049;-72
2022/11/30 15:40:21;;;;;;;15.93;10.02;;;12.80;86.30;;;;;;4993846;28;20053;-72
2022/11/30 15:43:26;;;;;;;18.40;9.98;;;;;;;;;;4993580;28;20187;-72
2022/11/30 15:46:37;;;;;;;15.80;9.77;;;13.00;86.10;;;;;;4994027;28;20057;-72
2022/11/30 15:49:50;;;;;;;17.73;11.35;;;15.20;87.70;;;;;;4993330;28;20057;-73
2022/11/30 15:53:22;;;;;;;22.58;11.32;;;10.30;84.90;;;;;;4993240;28;20114;-72
2022/11/30 15:56:27;;;;;;;20.02;11.45;;;16.30;88.30;;;;;;4998249;28;20049;-73
2022/11/30 15:59:33;;;;;;;15.57;9.80;;;12.60;86.50;;;;;;4994132;28;20046;-74
2022/11/30 16:02:37;;;;;;;17.67;11.27;;;12.90;86.50;;;;;;4993548;28;20061;-73
2022/11/30 16:05:56;;;;;;;19.15;11.43;;;12.90;86.90;;;;;;4993746;28;20501;-73
2022/11/30 16:09:15;;;;;;;18.52;10.38;;;11.10;85.70;;;;;;4993579;28;20062;-69
2022/11/30 16:12:26;;;;;;;17.75;11.82;;;14.90;87.90;;;;;;4993628;28;20041;-72
2022/11/30 16:15:36;;;;;;;18.17;12.35;;;12.90;86.10;;;;;;4993548;28;20061;-72
2022/11/30 16:18:40;;;;;;;24.48;11.68;;;12.20;84.90;;;;;;4993709;28;20057;-75
2022/11/30 16:21:44;;;;;;;16.63;10.10;;;13.10;85.30;;;;;;4993538;28;20422;-71
2022/11/30 16:24:48;;;;;;;26.55;14.60;;;12.90;85.90;;;;;;4993779;28;20042;-73
2022/11/30 16:27:52;;;;;;;23.58;13.55;;;;;;;;;;4993268;28;20041;-71
2022/11/30 16:30:59;;;;;;;20.67;13.32;;;11.10;84.70;;;;;;4993414;28;20053;-70
2022/11/30 16:34:05;;;;;;;18.35;12.25;;;;;;;;;;4993616;28;20069;-72
2022/11/30 16:37:10;;;;;;;19.58;12.43;;;10.90;84.20;;;;;;4993283;28;20053;-70
2022/11/30 16:40:14;;;;;;;17.45;10.80;;;;;;;;;;4992862;28;20051;-72
2022/11/30 16:43:18;;;;;;;22.52;12.77;;;12.80;85.00;;;;;;4994201;28;20053;-70
2022/11/30 16:46:25;;;;;;;21.13;11.32;;;13.00;85.40;;;;;;4993305;28;20414;-69
2022/11/30 16:49:29;;;;;;;14.57;9.23;;;16.70;87.30;;;;;;4992746;28;20061;-68
2022/11/30 16:52:34;;;;;;;12.63;7.88;;;;;;;;;;5003184;28;20061;-72
2022/11/30 16:55:38;;;;;;;20.23;10.50;;;12.70;86.30;;;;;;4993320;28;20045;-72
2022/11/30 16:58:43;;;;;;;19.35;9.98;;;13.00;86.20;;;;;;4992768;28;20412;-71
2022/11/30 17:01:51;;;;;;;13.02;9.48;;;12.60;86.40;;;;;;4992735;28;20037;-72
2022/11/30 17:04:56;;;;;;;18.20;12.05;;;;;;;;;;4992550;28;20049;-71
2022/11/30 17:08:00;;;;;;;18.88;9.80;;;;;;;;;;4992643;28;20053;-71